Time;durP1;ratioP1;P1;durP2;ratioP2;P2;SDS_P1;SDS_P2;PMS_P1;PMS_P2;Temp;Humidity;BMP_temperature;BMP_pressure;BME280_temperature;BME280_humidity;BME280_pressure;Samples;Min_cycle;Max_cycle;Signal;HPM_P1;HPM_P2
2021/09/06 00:00:55;;;;;;;13.65;8.05;;;;;;;15.32;96.02;98500.47;4960894;28;20050;-57
2021/09/06 00:03:20;;;;;;;16.73;8.95;;;;;;;15.05;97.28;98500.97;4961847;28;20034;-58
2021/09/06 00:05:45;;;;;;;13.63;8.65;;;;;;;15.17;96.11;98497.72;4960728;28;20031;-58
2021/09/06 00:08:11;;;;;;;15.57;9.18;;;;;;;15.10;96.32;98498.97;4961648;28;20027;-57
2021/09/06 00:10:41;;;;;;;14.38;8.70;;;;;;;15.04;97.16;98497.50;4961581;28;20717;-58
2021/09/06 00:13:10;;;;;;;11.50;8.15;;;;;;;15.16;95.31;98490.78;4961916;28;20038;-58
2021/09/06 00:15:37;;;;;;;14.32;8.55;;;;;;;15.14;95.57;98495.25;4961124;28;20230;-58
2021/09/06 00:18:06;;;;;;;15.10;8.77;;;;;;;15.03;95.53;98506.34;4961798;28;20504;-58
2021/09/06 00:20:33;;;;;;;15.43;8.48;;;;;;;15.06;95.20;98502.69;4961037;28;20073;-58
2021/09/06 00:22:59;;;;;;;12.27;8.35;;;;;;;15.14;95.02;98500.50;4961146;28;20109;-58
2021/09/06 00:25:24;;;;;;;19.90;9.27;;;;;;;14.94;95.90;98503.28;4960532;28;20038;-58
2021/09/06 00:27:50;;;;;;;15.38;8.77;;;;;;;14.78;96.91;98504.09;4961398;28;20077;-58
2021/09/06 00:30:16;;;;;;;13.07;8.80;;;;;;;14.78;96.66;98503.25;4960950;28;20034;-58
2021/09/06 00:32:41;;;;;;;11.93;8.00;;;;;;;15.00;96.88;98508.25;4961952;28;20038;-58
2021/09/06 00:35:07;;;;;;;12.90;8.40;;;;;;;15.01;94.94;98504.69;4961409;28;20118;-58
2021/09/06 00:37:32;;;;;;;13.85;8.23;;;;;;;14.99;94.80;98501.28;4961601;28;20322;-58
2021/09/06 00:39:57;;;;;;;14.38;8.05;;;;;;;14.78;95.59;98513.75;4961332;28;20035;-57
2021/09/06 00:42:23;;;;;;;12.57;8.48;;;;;;;14.60;95.53;98510.25;4960958;28;20045;-58
2021/09/06 00:44:48;;;;;;;14.50;8.25;;;;;;;14.86;94.45;98510.72;4961218;28;20027;-58
2021/09/06 00:47:14;;;;;;;11.15;7.75;;;;;;;14.72;93.89;98509.66;4960127;28;20052;-58
2021/09/06 00:49:39;;;;;;;12.15;8.10;;;;;;;14.70;94.21;98511.47;4961648;28;20137;-59
2021/09/06 00:52:05;;;;;;;11.88;7.32;;;;;;;14.58;94.77;98509.47;4961001;28;20668;-58
2021/09/06 00:54:31;;;;;;;12.07;7.78;;;;;;;14.38;95.59;98510.41;4960860;28;20655;-58
2021/09/06 00:56:56;;;;;;;14.30;8.13;;;;;;;14.32;94.69;98503.69;4960548;28;20741;-58
2021/09/06 00:59:22;;;;;;;11.10;7.28;;;;;;;14.57;94.34;98505.09;4961450;28;20073;-60
2021/09/06 01:01:47;;;;;;;12.85;7.85;;;;;;;14.62;94.69;98508.41;4960481;28;20161;-58
2021/09/06 01:04:12;;;;;;;12.35;7.85;;;;;;;14.70;91.84;98508.84;4960987;28;20027;-58
2021/09/06 01:06:38;;;;;;;12.98;7.82;;;;;;;14.61;92.54;98506.69;4960333;28;20485;-60
2021/09/06 01:09:03;;;;;;;16.20;8.00;;;;;;;14.15;92.92;98506.25;4959944;28;20031;-58
2021/09/06 01:11:29;;;;;;;12.63;7.97;;;;;;;14.18;93.62;98514.00;4960194;28;20066;-58
2021/09/06 01:13:54;;;;;;;18.33;8.73;;;;;;;14.06;94.59;98518.91;4960916;28;20030;-57
2021/09/06 01:16:24;;;;;;;13.02;8.30;;;;;;;14.25;93.29;98515.41;4960249;28;20043;-58
2021/09/06 01:18:50;;;;;;;16.88;8.15;;;;;;;14.32;94.90;98521.19;4961209;28;20046;-58
2021/09/06 01:21:16;;;;;;;13.55;8.57;;;;;;;14.11;94.31;98517.81;4960248;28;20131;-57
2021/09/06 01:23:42;;;;;;;12.98;8.10;;;;;;;13.92;95.33;98521.31;4960914;28;20138;-58
2021/09/06 01:26:07;;;;;;;13.05;8.27;;;;;;;14.15;93.51;98525.50;4960640;28;20062;-59
2021/09/06 01:28:34;;;;;;;12.43;8.30;;;;;;;14.26;92.74;98522.34;4961219;28;20043;-58
2021/09/06 01:31:00;;;;;;;11.63;7.45;;;;;;;14.26;93.94;98528.47;4960723;28;20133;-58
2021/09/06 01:33:26;;;;;;;14.15;8.07;;;;;;;13.85;95.25;98525.97;4961043;28;20030;-58
2021/09/06 01:35:51;;;;;;;15.65;8.75;;;;;;;13.84;94.98;98531.28;4960976;28;20401;-58
2021/09/06 01:38:17;;;;;;;11.98;8.00;;;;;;;13.80;95.03;98534.97;4965344;28;20061;-58
2021/09/06 01:40:42;;;;;;;14.32;7.88;;;;;;;13.88;94.48;98530.25;4964429;28;20039;-59
2021/09/06 01:43:07;;;;;;;13.40;8.38;;;;;;;13.80;95.54;98530.59;4965090;28;20033;-58
2021/09/06 01:45:33;;;;;;;12.52;8.55;;;;;;;13.57;97.40;98536.88;4964562;28;20069;-59
2021/09/06 01:47:58;;;;;;;10.80;7.78;;;;;;;13.61;97.23;98534.97;4963741;28;20041;-57
2021/09/06 01:50:24;;;;;;;11.85;8.15;;;;;;;13.54;98.15;98538.78;4964729;28;20026;-59
2021/09/06 01:52:50;;;;;;;12.60;8.48;;;;;;;13.78;95.75;98531.56;4965114;28;20022;-57
2021/09/06 01:55:16;;;;;;;17.67;8.15;;;;;;;14.03;94.76;98532.16;4964548;28;20023;-58
2021/09/06 01:57:41;;;;;;;10.93;7.03;;;;;;;14.07;95.37;98532.84;4964974;28;20022;-59
2021/09/06 02:00:07;;;;;;;13.90;7.68;;;;;;;13.96;94.99;98527.25;4964629;28;20034;-58
2021/09/06 02:02:33;;;;;;;14.48;8.50;;;;;;;13.57;96.66;98536.88;4964774;28;20043;-58
2021/09/06 02:04:58;;;;;;;14.48;8.23;;;;;;;13.73;96.82;98530.91;4964608;28;20085;-58
2021/09/06 02:07:23;;;;;;;12.75;8.32;;;;;;;13.73;96.63;98529.19;4963230;28;20142;-57
2021/09/06 02:09:49;;;;;;;16.20;8.85;;;;;;;13.61;96.92;98534.97;4964463;28;20129;-57
2021/09/06 02:12:14;;;;;;;15.50;8.88;;;;;;;13.49;97.30;98531.97;4963996;28;20060;-58
2021/09/06 02:14:39;;;;;;;14.68;8.77;;;;;;;13.51;98.19;98534.53;4964174;28;20279;-57
2021/09/06 02:17:05;;;;;;;13.45;7.90;;;;;;;13.67;96.18;98524.19;4962967;28;20225;-57
2021/09/06 02:19:30;;;;;;;11.70;7.60;;;;;;;14.17;94.35;98533.25;4964717;28;20524;-58
2021/09/06 02:21:56;;;;;;;12.98;8.10;;;;;;;13.81;93.90;98531.44;4961226;28;20445;-59
2021/09/06 02:24:21;;;;;;;12.88;7.90;;;;;;;13.96;95.49;98530.72;4962728;28;20035;-58
2021/09/06 02:26:46;;;;;;;12.48;7.90;;;;;;;13.61;95.94;98540.22;4962630;28;20054;-57
2021/09/06 02:29:12;;;;;;;15.45;8.77;;;;;;;13.66;94.48;98539.06;4964191;28;20088;-60
2021/09/06 02:31:38;;;;;;;14.07;8.82;;;;;;;13.29;96.97;98542.44;4963624;28;20137;-57
2021/09/06 02:34:04;;;;;;;14.48;8.13;;;;;;;13.49;96.47;98537.22;4964456;28;20030;-58
2021/09/06 02:36:32;;;;;;;17.38;8.45;;;;;;;13.40;95.70;98532.38;4963335;28;20043;-58
2021/09/06 02:38:57;;;;;;;14.00;8.40;;;;;;;13.32;97.02;98528.38;4962864;28;20395;-58
2021/09/06 02:41:22;;;;;;;13.63;7.18;;;;;;;13.75;96.27;98531.69;4963306;28;20519;-58
2021/09/06 02:43:48;;;;;;;15.40;8.27;;;;;;;13.73;93.62;98528.31;4963759;28;20035;-57
2021/09/06 02:46:13;;;;;;;15.13;8.25;;;;;;;13.15;97.07;98527.31;4962679;28;20407;-58
2021/09/06 02:48:39;;;;;;;17.88;8.18;;;;;;;13.14;97.97;98530.88;4963253;28;20412;-58
2021/09/06 02:51:04;;;;;;;12.52;7.55;;;;;;;13.28;97.51;98533.72;4961676;28;20042;-59
2021/09/06 02:53:30;;;;;;;15.90;9.38;;;;;;;13.33;96.89;98535.34;4962846;28;20132;-59
2021/09/06 02:55:56;;;;;;;14.98;8.57;;;;;;;13.37;97.00;98536.91;4961097;28;20141;-58
2021/09/06 02:58:22;;;;;;;15.43;8.52;;;;;;;13.44;95.45;98533.09;4963598;28;20025;-58
2021/09/06 03:00:47;;;;;;;16.92;9.23;;;;;;;13.39;96.11;98535.06;4961989;28;20030;-58
2021/09/06 03:03:13;;;;;;;16.20;9.30;;;;;;;13.41;95.82;98535.84;4963884;28;20039;-58
2021/09/06 03:05:38;;;;;;;14.98;8.70;;;;;;;13.24;97.67;98536.56;4962285;28;20039;-59
2021/09/06 03:08:03;;;;;;;17.88;9.13;;;;;;;13.32;96.19;98539.72;4963014;28;20042;-58
2021/09/06 03:10:29;;;;;;;14.00;9.15;;;;;;;13.20;96.88;98535.00;4962895;28;20031;-59
2021/09/06 03:12:55;;;;;;;14.23;9.07;;;;;;;13.29;96.30;98535.44;4961685;28;20792;-59
2021/09/06 03:15:21;;;;;;;14.27;8.80;;;;;;;13.11;96.67;98529.22;4960374;28;20030;-58
2021/09/06 03:17:46;;;;;;;15.45;9.05;;;;;;;13.28;96.33;98528.47;4962639;28;20046;-58
2021/09/06 03:20:12;;;;;;;16.45;9.20;;;;;;;13.24;96.58;98532.16;4961919;28;20114;-61
2021/09/06 03:22:38;;;;;;;14.43;9.38;;;;;;;13.27;96.79;98534.66;4963316;28;20082;-59
2021/09/06 03:25:03;;;;;;;15.05;8.85;;;;;;;13.22;97.91;98535.78;4962213;28;20475;-58
2021/09/06 03:27:30;;;;;;;17.80;8.85;;;;;;;12.86;98.57;98529.38;4962299;28;20062;-58
2021/09/06 03:29:56;;;;;;;14.25;8.95;;;;;;;13.16;96.67;98536.88;4962453;28;20450;-58
2021/09/06 03:32:21;;;;;;;16.25;9.57;;;;;;;13.27;96.50;98532.03;4962792;28;20544;-58
2021/09/06 03:34:46;;;;;;;17.02;9.40;;;;;;;13.20;96.61;98532.38;4962731;28;20034;-58
2021/09/06 03:37:12;;;;;;;13.48;9.30;;;;;;;13.20;95.81;98530.59;4961074;28;20051;-58
2021/09/06 03:39:37;;;;;;;16.20;9.45;;;;;;;13.18;96.54;98526.31;4961294;28;20035;-58
2021/09/06 03:42:03;;;;;;;16.00;9.35;;;;;;;13.13;96.97;98529.16;4961192;28;20464;-58
2021/09/06 03:44:28;;;;;;;13.80;9.20;;;;;;;13.19;97.07;98534.13;4960646;28;20174;-58
2021/09/06 03:46:54;;;;;;;21.65;10.48;;;;;;;13.06;97.37;98522.47;4961304;28;20038;-58
2021/09/06 03:49:19;;;;;;;15.68;9.40;;;;;;;12.93;98.00;98522.97;4962301;28;20025;-58
2021/09/06 03:51:45;;;;;;;18.17;9.85;;;;;;;12.99;97.58;98528.88;4962036;28;20075;-59
2021/09/06 03:54:10;;;;;;;18.67;10.38;;;;;;;12.90;98.84;98531.00;4961747;28;20027;-58
2021/09/06 03:56:35;;;;;;;14.25;9.00;;;;;;;12.92;98.61;98526.53;4960674;28;20039;-58
2021/09/06 03:59:01;;;;;;;17.45;9.40;;;;;;;13.23;97.14;98527.84;4961769;28;20107;-58
2021/09/06 04:01:26;;;;;;;15.50;9.18;;;;;;;13.10;97.72;98527.53;4961110;28;20101;-58
2021/09/06 04:03:51;;;;;;;13.85;9.25;;;;;;;13.29;97.49;98530.19;4962323;28;20027;-58
2021/09/06 04:06:20;;;;;;;15.98;10.23;;;;;;;12.87;97.98;98533.72;4961472;28;20051;-58
2021/09/06 04:08:45;;;;;;;18.83;10.43;;;;;;;12.80;98.80;98537.50;4962299;28;20030;-60
2021/09/06 04:11:10;;;;;;;13.75;9.25;;;;;;;13.06;98.29;98544.25;4961215;28;20045;-58
2021/09/06 04:13:36;;;;;;;15.68;10.18;;;;;;;13.07;96.83;98543.38;4961827;28;20157;-59
2021/09/06 04:16:01;;;;;;;18.85;10.40;;;;;;;12.88;97.57;98551.16;4961044;28;20043;-58
2021/09/06 04:18:27;;;;;;;20.08;10.10;;;;;;;12.78;99.82;98548.97;4960561;28;20162;-59
2021/09/06 04:20:54;;;;;;;17.45;9.10;;;;;;;13.15;97.63;98550.88;4961673;28;20038;-58
2021/09/06 04:23:20;;;;;;;14.52;10.18;;;;;;;13.06;96.87;98553.91;4962457;28;20027;-58
2021/09/06 04:25:45;;;;;;;18.70;10.30;;;;;;;12.85;97.64;98556.50;4962514;28;20035;-58
2021/09/06 04:28:11;;;;;;;15.93;9.70;;;;;;;12.98;96.79;98550.75;4963101;28;20038;-58
2021/09/06 04:30:36;;;;;;;18.92;10.15;;;;;;;12.87;97.67;98559.91;4961558;28;20045;-58
2021/09/06 04:33:01;;;;;;;18.23;10.07;;;;;;;13.05;96.80;98562.66;4962332;28;20061;-59
2021/09/06 04:35:27;;;;;;;16.60;9.77;;;;;;;13.21;97.47;98563.72;4962034;28;20087;-59
2021/09/06 04:37:52;;;;;;;19.13;10.80;;;;;;;12.83;98.14;98558.34;4962975;28;20069;-58
2021/09/06 04:40:17;;;;;;;16.33;9.88;;;;;;;12.90;98.14;98561.53;4962384;28;20518;-60
2021/09/06 04:42:43;;;;;;;15.82;9.65;;;;;;;12.83;99.27;98562.69;4961796;28;20068;-58
2021/09/06 04:45:09;;;;;;;16.08;9.23;;;;;;;13.33;97.27;98561.53;4962511;28;20022;-58
2021/09/06 04:47:34;;;;;;;13.93;8.80;;;;;;;13.25;96.62;98567.94;4961809;28;20026;-59
2021/09/06 04:50:00;;;;;;;16.95;10.25;;;;;;;13.17;96.24;98571.78;4961596;28;20089;-58
2021/09/06 04:52:25;;;;;;;15.65;10.45;;;;;;;13.36;96.37;98566.63;4961857;28;20140;-58
2021/09/06 04:54:51;;;;;;;15.85;10.10;;;;;;;12.98;96.87;98574.34;4962981;28;20027;-58
2021/09/06 04:57:16;;;;;;;16.08;10.52;;;;;;;13.23;95.33;98577.63;4961257;28;20035;-59
2021/09/06 04:59:41;;;;;;;14.35;8.20;;;;;;;13.37;97.76;98578.81;4959689;28;20055;-60
2021/09/06 05:02:07;;;;;;;20.95;10.65;;;;;;;13.27;95.27;98578.31;4952901;28;20158;-58
2021/09/06 05:04:32;;;;;;;14.88;9.63;;;;;;;13.28;95.74;98583.50;4964722;28;20026;-58
2021/09/06 05:06:57;;;;;;;15.95;10.38;;;;;;;13.37;95.46;98589.31;4964135;28;20158;-59
2021/09/06 05:09:23;;;;;;;18.70;10.57;;;;;;;13.14;96.72;98591.13;4965112;28;20061;-58
2021/09/06 05:11:48;;;;;;;18.00;10.57;;;;;;;13.08;96.91;98593.97;4961988;28;20230;-58
2021/09/06 05:14:14;;;;;;;17.33;9.90;;;;;;;13.53;94.74;98595.59;4963784;28;20034;-59
2021/09/06 05:16:39;;;;;;;23.33;12.90;;;;;;;13.58;94.49;98592.75;4962494;28;20125;-59
2021/09/06 05:19:05;;;;;;;17.52;9.25;;;;;;;13.63;95.22;98593.41;4963474;28;20093;-58
2021/09/06 05:21:30;;;;;;;17.77;10.38;;;;;;;14.17;91.16;98590.97;4963381;28;20117;-58
2021/09/06 05:23:57;;;;;;;17.25;10.07;;;;;;;14.97;89.10;98592.47;4963394;28;20984;-57
2021/09/06 05:26:23;;;;;;;15.05;9.35;;;;;;;16.00;85.61;98601.19;4961257;28;20661;-58
2021/09/06 05:28:48;;;;;;;15.65;9.30;;;;;;;17.47;86.27;98595.63;4962029;28;20033;-57
2021/09/06 05:31:14;;;;;;;12.40;8.13;;;;;;;17.72;74.56;98602.91;4959762;28;20039;-58
2021/09/06 05:33:40;;;;;;;14.02;8.52;;;;;;;18.95;75.55;98597.84;4963914;28;20388;-58
2021/09/06 05:36:06;;;;;;;19.23;8.38;;;;;;;17.14;75.20;98600.13;4960781;28;20031;-58
2021/09/06 05:38:32;;;;;;;11.93;8.10;;;;;;;18.96;70.66;98604.81;4944453;28;20110;-57
2021/09/06 05:40:57;;;;;;;13.10;8.30;;;;;;;19.00;71.12;98598.38;4962164;28;20046;-59
2021/09/06 05:43:23;;;;;;;19.08;8.48;;;;;;;17.84;71.91;98602.16;4962857;28;20089;-57
2021/09/06 05:45:48;;;;;;;17.13;11.18;;;;;;;17.15;73.22;98611.56;4962156;28;20221;-59
2021/09/06 05:48:13;;;;;;;14.55;9.00;;;;;;;16.82;74.55;98603.75;4962676;28;20076;-57
2021/09/06 05:50:39;;;;;;;12.40;8.23;;;;;;;16.49;76.77;98610.00;4961543;28;20452;-59
2021/09/06 05:53:04;;;;;;;15.80;8.90;;;;;;;16.43;77.89;98616.44;4961993;28;20480;-58
2021/09/06 05:55:29;;;;;;;15.18;8.88;;;;;;;16.59;77.39;98613.81;4961348;28;20035;-59
2021/09/06 05:57:55;;;;;;;13.25;8.80;;;;;;;16.83;77.01;98622.13;4960982;28;20082;-58
2021/09/06 06:00:20;;;;;;;14.13;8.15;;;;;;;16.77;75.98;98618.03;4960657;28;20667;-58
2021/09/06 06:02:46;;;;;;;12.55;8.65;;;;;;;16.47;77.47;98619.75;4961427;28;20042;-57
2021/09/06 06:05:12;;;;;;;12.82;8.60;;;;;;;16.71;76.87;98623.66;4961210;28;20022;-57
2021/09/06 06:07:37;;;;;;;14.38;9.43;;;;;;;16.22;78.51;98629.00;4961730;28;20030;-57
2021/09/06 06:10:04;;;;;;;15.23;8.63;;;;;;;16.49;77.38;98626.63;4963019;28;20026;-57
2021/09/06 06:12:30;;;;;;;13.05;8.90;;;;;;;17.13;74.34;98632.72;4962612;28;20865;-57
2021/09/06 06:14:57;;;;;;;17.08;8.88;;;;;;;16.21;78.55;98629.94;4962445;28;20483;-58
2021/09/06 06:17:25;;;;;;;16.92;9.05;;;;;;;16.43;78.59;98631.38;4961469;28;20042;-57
2021/09/06 06:19:51;;;;;;;13.60;9.07;;;;;;;16.14;80.59;98639.09;4962767;28;20327;-58
2021/09/06 06:22:17;;;;;;;12.80;8.93;;;;;;;16.50;79.46;98635.38;4963473;28;20126;-57
2021/09/06 06:24:42;;;;;;;12.75;9.10;;;;;;;16.67;78.95;98637.94;4966705;28;20122;-58
2021/09/06 06:27:08;;;;;;;21.15;12.02;;;;;;;17.42;75.58;98642.50;4965669;28;20077;-58
2021/09/06 06:29:33;;;;;;;15.13;8.98;;;;;;;17.27;76.21;98634.53;4966759;28;20065;-58
2021/09/06 06:32:00;;;;;;;11.55;8.38;;;;;;;18.09;74.57;98648.19;4964301;28;20065;-60
2021/09/06 06:34:25;;;;;;;12.23;8.32;;;;;;;18.23;73.66;98640.28;4965444;28;20404;-59
2021/09/06 06:36:51;;;;;;;13.85;8.80;;;;;;;18.62;71.91;98641.34;4964019;28;20050;-58
2021/09/06 06:39:17;;;;;;;12.63;8.20;;;;;;;18.60;71.56;98639.72;4965854;28;20027;-59
2021/09/06 06:41:45;;;;;;;15.63;8.27;;;;;;;20.00;67.47;98643.75;4965992;28;20128;-58
2021/09/06 06:44:10;;;;;;;12.27;7.93;;;;;;;20.68;64.81;98633.69;4966665;28;20488;-58
2021/09/06 06:46:36;;;;;;;12.05;7.43;;;;;;;21.74;62.19;98642.59;4965516;28;20182;-59
2021/09/06 06:49:01;;;;;;;10.15;7.40;;;;;;;24.39;55.30;98636.91;4964840;28;20493;-59
2021/09/06 06:51:26;;;;;;;13.02;7.38;;;;;;;24.61;54.65;98635.00;4962436;28;20504;-59
2021/09/06 06:53:51;;;;;;;12.55;7.10;;;;;;;25.43;52.34;98633.84;4964778;28;20038;-59
2021/09/06 06:56:17;;;;;;;12.05;7.38;;;;;;;27.04;48.70;98631.00;4964410;28;20054;-59
2021/09/06 06:58:42;;;;;;;9.73;7.35;;;;;;;28.17;45.98;98633.91;4966191;28;20027;-59
2021/09/06 07:01:07;;;;;;;9.63;6.95;;;;;;;28.25;45.63;98631.28;4965079;28;20046;-58
2021/09/06 07:03:33;;;;;;;8.88;6.78;;;;;;;29.46;43.13;98634.63;4963302;28;20034;-59
2021/09/06 07:05:58;;;;;;;11.45;6.82;;;;;;;28.35;43.71;98631.13;4964774;28;20082;-58
2021/09/06 07:08:23;;;;;;;10.95;6.82;;;;;;;30.18;40.57;98640.91;4965545;28;20109;-58
2021/09/06 07:10:49;;;;;;;11.38;6.53;;;;;;;31.49;38.90;98635.88;4964902;28;20041;-59
2021/09/06 07:13:14;;;;;;;8.95;6.38;;;;;;;30.77;39.49;98645.09;4964140;28;20069;-60
2021/09/06 07:15:40;;;;;;;9.85;7.15;;;;;;;30.90;39.66;98645.34;4965191;28;20620;-59
2021/09/06 07:18:07;;;;;;;8.10;6.15;;;;;;;31.10;38.76;98642.19;4970755;28;20488;-59
2021/09/06 07:20:33;;;;;;;10.00;6.93;;;;;;;30.56;40.89;98642.97;4965140;28;20129;-59
2021/09/06 07:22:59;;;;;;;10.68;6.63;;;;;;;31.05;39.43;98647.31;4965383;28;20479;-59
2021/09/06 07:25:24;;;;;;;10.77;6.60;;;;;;;31.97;37.74;98647.22;4964751;28;20113;-59
2021/09/06 07:27:50;;;;;;;9.98;6.30;;;;;;;32.11;37.76;98647.44;4965358;28;20121;-59
2021/09/06 07:30:15;;;;;;;9.02;6.50;;;;;;;32.62;35.48;98644.81;4964272;28;20035;-61
2021/09/06 07:32:40;;;;;;;10.48;6.30;;;;;;;32.18;36.64;98646.50;4965439;28;20122;-58
2021/09/06 07:35:06;;;;;;;10.77;7.07;;;;;;;32.75;35.86;98644.16;4962786;28;20396;-58
2021/09/06 07:37:32;;;;;;;9.93;6.70;;;;;;;31.23;37.60;98645.16;4964203;28;20097;-59
2021/09/06 07:39:57;;;;;;;9.10;6.45;;;;;;;32.47;35.36;98651.06;4964979;28;20045;-59
2021/09/06 07:42:23;;;;;;;10.15;6.60;;;;;;;33.23;34.76;98653.44;4964672;28;20090;-59
2021/09/06 07:44:49;;;;;;;11.43;6.43;;;;;;;33.78;34.51;98656.47;4964286;28;20038;-60
2021/09/06 07:47:14;;;;;;;10.88;7.03;;;;;;;33.79;34.54;98655.41;4964402;28;20038;-59
2021/09/06 07:49:41;;;;;;;10.55;6.82;;;;;;;32.82;35.58;98662.09;4964533;28;20508;-59
2021/09/06 07:52:07;;;;;;;9.20;6.35;;;;;;;34.51;33.50;98666.91;4963761;28;20153;-59
2021/09/06 07:54:33;;;;;;;7.78;6.68;;;;;;;32.35;35.70;98660.66;4964529;28;20026;-59
2021/09/06 07:56:58;;;;;;;10.18;7.10;;;;;;;32.28;36.58;98659.75;4962909;28;20408;-61
2021/09/06 07:59:24;;;;;;;12.02;6.40;;;;;;;32.33;35.98;98661.88;4964784;28;20543;-59
2021/09/06 08:01:49;;;;;;;11.35;7.78;;;;;;;33.82;34.08;98654.19;4963922;28;20097;-59
2021/09/06 08:04:14;;;;;;;13.25;6.75;;;;;;;32.60;35.20;98653.13;4963604;28;20380;-60
2021/09/06 08:06:40;;;;;;;10.77;6.78;;;;;;;33.33;34.57;98657.69;4964172;28;20118;-59
2021/09/06 08:09:07;;;;;;;10.70;6.57;;;;;;;34.44;33.33;98657.09;4964803;28;20364;-60
2021/09/06 08:11:32;;;;;;;9.30;6.68;;;;;;;33.25;34.57;98655.09;4960766;28;20405;-59
2021/09/06 08:13:58;;;;;;;9.05;6.57;;;;;;;33.00;35.14;98658.16;4963654;28;20037;-59
2021/09/06 08:16:25;;;;;;;9.38;6.85;;;;;;;33.79;34.00;98657.28;4963979;28;20031;-59
2021/09/06 08:18:50;;;;;;;9.07;6.68;;;;;;;33.55;33.23;98653.13;4963040;28;20031;-59
2021/09/06 08:21:16;;;;;;;11.95;6.97;;;;;;;35.68;29.55;98661.41;4964053;28;20038;-60
2021/09/06 08:23:41;;;;;;;9.85;6.80;;;;;;;33.74;31.71;98660.56;4963570;28;20082;-59
2021/09/06 08:26:07;;;;;;;9.35;7.10;;;;;;;31.61;35.15;98669.47;4962578;28;20042;-60
2021/09/06 08:28:33;;;;;;;8.95;7.13;;;;;;;33.48;31.91;98665.72;4964010;28;20583;-60
2021/09/06 08:30:59;;;;;;;10.60;7.22;;;;;;;30.03;37.07;98669.53;4962554;28;20046;-60
2021/09/06 08:33:25;;;;;;;9.35;7.05;;;;;;;31.98;34.21;98675.88;4963532;28;20655;-59
2021/09/06 08:35:51;;;;;;;11.70;7.10;;;;;;;34.15;31.84;98667.09;4962180;28;20038;-59
2021/09/06 08:38:18;;;;;;;11.32;6.47;;;;;;;33.77;31.58;98672.88;4963328;28;20038;-59
2021/09/06 08:40:44;;;;;;;8.70;6.95;;;;;;;32.02;34.33;98674.50;4962719;28;20043;-63
2021/09/06 08:43:09;;;;;;;9.40;6.38;;;;;;;34.63;31.15;98675.31;4963704;28;20077;-59
2021/09/06 08:45:36;;;;;;;8.65;7.13;;;;;;;30.87;35.47;98675.31;4963371;28;20049;-59
2021/09/06 08:48:01;;;;;;;9.38;7.50;;;;;;;31.07;35.39;98680.28;4963921;28;20027;-58
2021/09/06 08:50:27;;;;;;;10.57;7.28;;;;;;;33.53;32.27;98674.94;4963595;28;20114;-61
2021/09/06 08:52:53;;;;;;;10.63;7.30;;;;;;;35.40;29.21;98670.59;4963492;28;20067;-60
2021/09/06 08:55:19;;;;;;;9.02;6.60;;;;;;;32.71;32.96;98669.88;4963117;28;20018;-59
2021/09/06 08:57:44;;;;;;;14.65;7.22;;;;;;;32.51;33.65;98670.41;4961836;28;20023;-60
2021/09/06 09:00:11;;;;;;;9.48;6.78;;;;;;;33.45;32.13;98668.81;4963155;28;20061;-60
2021/09/06 09:02:37;;;;;;;12.32;6.60;;;;;;;33.88;30.46;98666.09;4962803;28;20125;-59
2021/09/06 09:05:08;;;;;;;10.40;6.97;;;;;;;34.88;30.02;98677.50;4961578;28;20615;-60
2021/09/06 09:07:34;;;;;;;12.30;6.40;;;;;;;33.19;31.95;98675.63;4962463;28;20117;-59
2021/09/06 09:10:00;;;;;;;8.38;6.57;;;;;;;33.59;31.89;98673.31;4962835;28;20026;-59
2021/09/06 09:12:28;;;;;;;9.52;6.35;;;;;;;31.78;34.12;98675.56;4962945;28;20043;-59
2021/09/06 09:14:59;;;;;;;8.95;6.50;;;;;;;31.40;35.25;98672.81;4963366;28;20042;-59
2021/09/06 09:17:26;;;;;;;9.35;6.80;;;;;;;34.98;30.53;98677.97;4963476;28;20046;-59
2021/09/06 09:19:52;;;;;;;10.20;6.60;;;;;;;36.71;27.77;98677.16;4963620;28;20054;-60
2021/09/06 09:22:29;;;;;;;9.25;6.50;;;;;;;33.04;34.46;98678.34;4962245;28;20153;-59
2021/09/06 09:25:02;;;;;;;12.43;6.45;;;;;;;34.63;30.42;98680.75;4962437;28;20125;-61
2021/09/06 09:27:33;;;;;;;12.02;6.60;;;;;;;33.43;33.18;98669.00;4962954;28;20050;-60
2021/09/06 09:30:00;;;;;;;12.32;8.18;;;;;;;34.49;32.56;98681.69;4962892;28;20053;-59
2021/09/06 09:32:25;;;;;;;10.07;6.60;;;;;;;32.81;34.08;98676.66;4963224;28;20101;-59
2021/09/06 09:34:50;;;;;;;10.93;7.07;;;;;;;35.14;31.58;98672.19;4963246;28;20030;-59
2021/09/06 09:37:24;;;;;;;9.15;6.60;;;;;;;33.97;32.32;98675.75;4961803;28;20631;-59
2021/09/06 09:39:55;;;;;;;7.55;6.45;;;;;;;33.46;34.01;98681.31;4962309;28;20085;-60
2021/09/06 09:42:21;;;;;;;9.65;6.30;;;;;;;34.33;31.26;98680.97;4962463;28;20047;-60
2021/09/06 09:44:52;;;;;;;8.93;6.60;;;;;;;32.35;35.48;98679.56;4962532;28;20030;-58
2021/09/06 09:47:23;;;;;;;;;;;;;;;32.31;33.25;98683.63;4962753;28;20134;-58
2021/09/06 09:49:49;;;;;;;9.32;6.20;;;;;;;34.75;29.45;98684.56;4962604;28;19914;-58
2021/09/06 09:52:18;;;;;;;7.35;6.22;;;;;;;31.05;34.06;98682.31;4963394;28;20080;-58
2021/09/06 09:54:47;;;;;;;10.00;6.32;;;;;;;34.02;30.58;98672.44;4962237;28;20061;-60
2021/09/06 09:57:12;;;;;;;10.52;6.40;;;;;;;32.96;32.42;98667.69;4962784;28;20146;-59
2021/09/06 09:59:40;;;;;;;9.52;7.10;;;;;;;32.47;34.49;98669.13;4966609;28;20098;-60
2021/09/06 10:02:11;;;;;;;8.68;6.57;;;;;;;31.74;35.42;98665.31;4965814;28;20524;-59
2021/09/06 10:04:46;;;;;;;9.00;6.80;;;;;;;32.52;33.03;98658.59;4966993;28;20034;-58
2021/09/06 10:07:11;;;;;;;9.57;6.60;;;;;;;31.59;34.51;98666.09;4966292;28;20133;-58
2021/09/06 10:09:45;;;;;;;9.90;6.40;;;;;;;32.97;33.18;98663.94;4965361;28;20113;-58
2021/09/06 10:12:17;;;;;;;7.75;6.03;;;;;;;30.99;34.07;98669.53;4966196;28;20576;-58
2021/09/06 10:14:53;;;;;;;12.15;6.07;;;;;;;34.14;29.98;98662.72;4966696;28;20042;-59
2021/09/06 10:17:36;;;;;;;8.38;6.10;;;;;;;32.64;31.69;98656.28;4965455;28;20045;-58
2021/09/06 10:20:11;;;;;;;9.48;6.90;;;;;;;31.49;33.30;98654.75;4966741;28;20889;-58
2021/09/06 10:22:39;;;;;;;9.77;6.38;;;;;;;32.02;33.45;98654.75;4965822;28;20054;-59
2021/09/06 10:25:07;;;;;;;8.70;5.97;;;;;;;33.71;31.06;98652.00;4965988;28;20153;-59
2021/09/06 10:27:36;;;;;;;8.20;6.25;;;;;;;33.63;31.12;98652.13;4965859;28;20061;-58
2021/09/06 10:30:10;;;;;;;10.90;6.20;;;;;;;33.42;32.34;98645.72;4965754;28;20117;-58
2021/09/06 10:32:50;;;;;;;9.35;6.60;;;;;;;32.33;33.13;98646.53;4964362;28;20079;-59
2021/09/06 10:35:20;;;;;;;8.48;6.20;;;;;;;33.66;32.04;98644.50;4965595;28;20026;-58
2021/09/06 10:38:07;;;;;;;7.80;6.00;;;;;;;33.10;32.83;98642.44;4956367;28;20030;-59
2021/09/06 10:40:38;;;;;;;7.43;5.95;;;;;;;32.56;32.53;98640.16;4965173;28;20043;-59
2021/09/06 10:43:14;;;;;;;9.32;6.10;;;;;;;32.40;31.43;98635.78;4965808;28;20085;-58
2021/09/06 10:45:41;;;;;;;7.47;5.72;;;;;;;32.09;31.26;98631.44;4965168;28;20043;-58
2021/09/06 10:48:07;;;;;;;8.65;5.72;;;;;;;34.01;29.05;98630.19;4966419;28;20045;-58
2021/09/06 10:50:36;;;;;;;6.93;5.45;;;;;;;33.03;31.19;98628.03;4965759;28;20039;-59
2021/09/06 10:53:02;;;;;;;8.73;5.80;;;;;;;31.32;32.64;98627.03;4966654;28;20031;-59
2021/09/06 10:55:28;;;;;;;14.65;6.32;;;;;;;30.69;33.24;98623.56;4965431;28;20373;-60
2021/09/06 10:57:53;;;;;;;11.60;5.93;;;;;;;30.47;33.99;98631.41;4965026;28;20050;-58
2021/09/06 11:00:23;;;;;;;7.50;5.57;;;;;;;32.61;31.88;98622.41;4964378;28;20026;-59
2021/09/06 11:02:50;;;;;;;9.40;5.90;;;;;;;30.36;34.85;98626.41;4966195;28;20031;-57
2021/09/06 11:05:24;;;;;;;8.15;6.00;;;;;;;30.92;35.12;98624.47;4960578;28;20442;-58
2021/09/06 11:08:02;;;;;;;9.52;6.00;;;;;;;31.27;34.42;98622.22;4961406;28;20023;-59
2021/09/06 11:10:29;;;;;;;8.88;6.53;;;;;;;30.13;35.22;98627.13;4961137;28;20034;-60
2021/09/06 11:12:58;;;;;;;9.63;6.10;;;;;;;30.42;35.29;98616.78;4967377;28;20041;-59
2021/09/06 11:15:25;;;;;;;9.25;5.68;;;;;;;31.97;35.08;98620.25;4960606;28;20034;-58
2021/09/06 11:17:58;;;;;;;8.20;5.60;;;;;;;32.58;33.87;98613.84;4960914;28;20037;-61
2021/09/06 11:20:24;;;;;;;8.52;6.07;;;;;;;31.55;35.56;98610.88;4961106;28;20510;-60
2021/09/06 11:22:50;;;;;;;7.60;5.78;;;;;;;31.47;34.34;98619.03;4960854;28;20572;-60